Latest Weather Observations for Kowen Forest

IDN60901

Issued at 9:31 pm EST Sunday 26 May 2024 (issued every 10 minutes, with the page automatically refreshed every 10 minutes)

About weather observations | Map of Canberra area stations | Latest observations for Canberra area | Other Formats
Station Details ID: 250071 Name: KOWEN FOREST (PCS) Lat: -35.31 Lon: 149.32 Height: 720.0 m

Portable automatic weather stations (PAWS) are operated by other organisations, such as Fire and Emergency Services, and are included here by agreement. Portable stations may be deployed to a location for a short period and their location may be subject to change without notice. Wind observations from these stations are provided from heights of either three (3) or ten (10) metres above ground level (AGL).

Data from the previous 72 hours. | See also: Recent months for locations in Aust Capital Territory
Date/Time
EST
Temp
°C
App
Temp
°C
Dew
Point
°C
Rel
Hum
%
Delta-T
°C
Wind Press
QNH
hPa
Press
MSL
hPa
Rain since
9am
mm
Dir  Spd
km/h
Gust
km/h
Spd
kts
Gust
kts
26/09:20pm 2.1 0.4 1.6 96 0.2 CALM 0 4 0 2 1026.7 - 0.0
26/09:10pm 2.3 0.6 1.9 97 0.2 CALM 0 2 0 1 1026.5 - 0.0
26/09:00pm 2.0 -0.1 1.5 96 0.2 SE 2 4 1 2 1026.5 - 0.0
26/08:50pm 1.3 -1.7 0.8 96 0.2 NE 6 6 3 3 1026.5 - 0.0
26/08:40pm 1.4 -1.2 0.7 95 0.3 NE 4 6 2 3 1026.5 - 0.0
26/08:30pm 2.0 -0.5 1.4 96 0.2 ENE 4 4 2 2 1026.5 - 0.0
26/08:20pm 3.2 1.2 2.5 95 0.3 NE 2 4 1 2 1026.5 - 0.0
26/08:10pm 4.0 2.6 3.5 97 0.2 CALM 0 0 0 0 1026.4 - 0.0
26/08:00pm 3.3 1.4 2.6 95 0.3 N 2 2 1 1 1026.3 - 0.0
26/07:50pm 4.0 2.6 3.5 97 0.2 CALM 0 0 0 0 1026.3 - 0.0
26/07:40pm 3.7 2.2 3.1 96 0.3 CALM 0 0 0 0 1026.3 - 0.0
26/07:30pm 3.7 2.2 3.0 95 0.3 CALM 0 2 0 1 1026.2 - 0.0
26/07:20pm 3.7 2.2 3.0 95 0.3 CALM 0 0 0 0 1026.1 - 0.0
26/07:10pm 3.6 1.7 2.9 95 0.3 NE 2 4 1 2 1026.0 - 0.0
26/07:00pm 4.2 2.4 3.2 93 0.4 NE 2 4 1 2 1025.9 - 0.0
26/06:50pm 4.5 2.7 3.6 94 0.4 ESE 2 6 1 3 1025.9 - 0.0
26/06:40pm 4.8 3.0 3.7 93 0.5 ESE 2 4 1 2 1025.9 - 0.0
26/06:30pm 5.3 3.7 4.5 95 0.4 ESE 2 4 1 2 1025.8 - 0.0
26/06:20pm 4.9 3.2 4.2 95 0.3 ENE 2 2 1 1 1025.7 - 0.0
26/06:10pm 5.3 3.7 4.3 93 0.4 ENE 2 4 1 2 1025.6 - 0.0
26/06:00pm 5.7 3.7 4.5 92 0.5 NE 4 4 2 2 1025.5 - 0.0
26/05:50pm 6.3 4.4 5.0 91 0.6 NE 4 6 2 3 1025.4 - 0.0
26/05:40pm 6.4 4.2 5.3 93 0.5 NE 6 7 3 4 1025.5 - 0.0
26/05:30pm 6.8 4.6 5.1 89 0.8 NE 6 7 3 4 1025.3 - 0.0
26/05:20pm 8.0 5.9 5.8 86 1.0 NE 6 6 3 3 1025.3 - 0.0
26/05:10pm 9.3 7.4 6.5 83 1.4 NE 6 7 3 4 1025.2 - 0.0
26/05:00pm 11.2 10.4 6.5 73 2.3 CALM 0 4 0 2 1025.1 - 0.0
26/04:50pm 13.0 11.9 6.7 65 3.1 WNW 2 6 1 3 1025.1 - 0.0
26/04:40pm 13.6 11.6 6.3 61 3.6 WNW 6 7 3 4 1025.0 - 0.0
26/04:30pm 13.9 11.7 6.4 60 3.7 WNW 7 11 4 6 1025.0 - 0.0
26/04:20pm 14.4 11.8 6.3 58 4.1 WNW 9 9 5 5 1024.9 - 0.0
26/04:10pm 14.8 12.7 6.7 58 4.1 WNW 7 9 4 5 1024.8 - 0.0
26/04:00pm 14.8 12.3 6.7 58 4.1 WNW 9 11 5 6 1024.8 - 0.0
26/03:50pm 15.0 12.4 6.3 56 4.4 WNW 9 13 5 7 1024.7 - 0.0
26/03:40pm 15.2 12.6 6.2 55 4.5 WNW 9 15 5 8 1024.7 - 0.0
26/03:30pm 15.3 12.3 6.0 54 4.7 WNW 11 15 6 8 1024.9 - 0.0
26/03:20pm 15.3 12.3 6.0 54 4.7 WNW 11 15 6 8 1024.8 - 0.0
26/03:10pm 15.4 12.0 5.7 52 4.8 W 13 17 7 9 1024.8 - 0.0
26/03:00pm 15.6 12.7 6.3 54 4.7 W 11 13 6 7 1024.8 - 0.0
26/02:50pm 15.5 12.9 5.9 52 4.8 WNW 9 13 5 7 1024.8 - 0.0
26/02:40pm 15.5 12.0 5.5 51 5.0 W 13 17 7 9 1024.9 - 0.0
26/02:30pm 15.5 12.0 5.6 51 4.9 W 13 15 7 8 1024.9 - 0.0
26/02:20pm 15.5 12.5 6.0 53 4.8 W 11 13 6 7 1024.8 - 0.0
26/02:10pm 15.4 12.4 6.2 54 4.6 WNW 11 15 6 8 1024.8 - 0.0
26/02:00pm 15.2 12.1 5.7 53 4.7 W 11 15 6 8 1025.0 - 0.0
26/01:50pm 15.2 11.6 5.2 51 4.9 W 13 17 7 9 1025.1 - 0.0
26/01:40pm 15.3 12.5 5.2 51 5.0 WNW 9 15 5 8 1025.1 - 0.0
26/01:30pm 14.8 11.6 5.1 52 4.7 W 11 15 6 8 1025.2 - 0.0
26/01:20pm 14.7 10.9 4.1 49 5.1 W 13 17 7 9 1025.4 - 0.0
26/01:10pm 14.7 11.2 5.5 54 4.5 W 13 15 7 8 1025.4 - 0.0
26/01:00pm 14.7 11.4 6.4 57 4.2 W 13 15 7 8 1025.5 - 0.0
26/12:50pm 14.6 11.6 5.9 56 4.3 WNW 11 15 6 8 1025.6 - 0.0
26/12:40pm 14.4 10.8 5.2 54 4.5 WNW 13 17 7 9 1025.7 - 0.0
26/12:30pm 14.6 11.5 5.5 54 4.5 WNW 11 15 6 8 1025.8 - 0.0
26/12:20pm 14.3 11.3 5.8 56 4.2 WNW 11 13 6 7 1025.9 - 0.0
26/12:10pm 14.3 11.3 5.8 56 4.2 WNW 11 15 6 8 1026.0 - 0.0
26/12:00pm 14.4 11.7 5.8 56 4.3 W 9 13 5 7 1026.1 - 0.0
26/11:50am 14.2 12.0 6.1 58 4.0 W 7 11 4 6 1026.3 - 0.0
26/11:40am 14.0 11.9 6.8 62 3.6 WSW 7 11 4 6 1026.4 - 0.0
26/11:30am 13.8 11.9 6.8 62 3.5 WSW 6 9 3 5 1026.5 - 0.0
26/11:20am 13.5 11.5 7.2 65 3.2 SW 7 7 4 4 1026.7 - 0.0
26/11:10am 13.0 11.3 7.4 69 2.8 SSW 6 7 3 4 1026.9 - 0.0
26/11:00am 12.5 10.8 7.4 71 2.6 SSW 6 7 3 4 1027.0 - 0.0
26/10:50am 12.2 10.5 7.6 73 2.3 SSW 6 7 3 4 1027.2 - 0.0
26/10:40am 11.8 10.8 8.7 81 1.6 SSW 4 6 2 3 1027.3 - 0.0
26/10:30am 11.3 10.6 8.5 83 1.4 SW 2 4 1 2 1027.4 - 0.0
26/10:20am 10.5 9.8 8.6 88 1.0 SW 2 2 1 1 1027.5 - 0.0
26/10:10am 9.7 8.5 8.0 89 0.9 SW 4 6 2 3 1027.6 - 0.0
26/10:00am 9.2 8.0 8.0 92 0.6 SW 4 6 2 3 1027.6 - 0.0
26/09:50am 9.0 8.2 8.0 93 0.5 SW 2 6 1 3 1027.6 - 0.0
26/09:30am 7.7 6.6 7.0 95 0.3 W 2 4 1 2 1027.7 - 0.0
26/09:20am 7.0 6.2 6.4 96 0.3 CALM 0 2 0 1 1027.8 - 0.0
26/09:10am 6.1 5.1 5.5 96 0.3 CALM 0 0 0 0 1027.8 - 0.0
26/09:00am 5.5 4.3 4.8 95 0.3 CALM 0 0 0 0 1027.8 - 0.2
26/08:50am 4.9 3.6 4.3 96 0.3 CALM 0 0 0 0 1027.7 - 0.2
26/08:40am 3.7 2.2 3.2 97 0.2 CALM 0 0 0 0 1027.7 - 0.2
26/08:30am 2.2 0.5 1.8 97 0.2 CALM 0 2 0 1 1027.7 - 0.2
26/08:20am 1.3 -0.5 0.9 97 0.2 CALM 0 2 0 1 1027.7 - 0.2
26/08:10am 0.5 -1.5 0.1 97 0.2 CALM 0 0 0 0 1027.8 - 0.2
26/08:00am 0.1 -1.9 -0.3 97 0.2 CALM 0 2 0 1 1027.7 - 0.0
26/07:50am -0.3 -2.8 -0.7 97 0.1 ENE 2 4 1 2 1027.7 - 0.0
26/07:40am -0.6 -3.5 -1.0 97 0.1 NE 4 4 2 2 1027.6 - 0.0
26/07:30am -0.5 -2.6 -0.8 98 0.1 CALM 0 4 0 2 1027.4 - 0.0
26/07:20am -0.4 -2.5 -0.7 98 0.1 CALM 0 0 0 0 1027.3 - 0.0
26/07:10am -0.4 -2.5 -0.7 98 0.1 CALM 0 0 0 0 1027.3 - 0.0
26/07:00am -0.4 -2.5 -0.7 98 0.1 CALM 0 0 0 0 1027.2 - 0.0
26/06:50am -0.4 -2.5 -0.8 97 0.1 CALM 0 0 0 0 1027.1 - 0.0
26/06:40am -0.3 -2.7 -0.6 98 0.1 SSW 2 4 1 2 1027.2 - 0.0
26/06:30am 0.0 -2.0 -0.3 98 0.1 CALM 0 2 0 1 1027.0 - 0.0
26/06:20am -0.1 -3.3 -0.5 97 0.1 NE 6 6 3 3 1026.9 - 0.0
26/06:10am 0.0 -2.8 -0.4 97 0.2 NE 4 6 2 3 1026.8 - 0.0
26/06:00am 0.0 -2.4 -0.3 98 0.1 ENE 2 4 1 2 1026.7 - 0.0
26/05:50am -0.2 -3.0 -0.5 98 0.1 NE 4 4 2 2 1026.7 - 0.0
26/05:40am -0.1 -2.1 -0.4 98 0.1 CALM 0 2 0 1 1026.7 - 0.0
26/05:30am 0.1 -1.9 -0.3 97 0.2 CALM 0 4 0 2 1026.8 - 0.0
26/05:20am 0.3 -2.4 0.0 98 0.1 S 4 6 2 3 1026.7 - 0.0
26/05:10am 0.1 -1.9 -0.3 97 0.2 CALM 0 2 0 1 1026.7 - 0.0
26/05:00am 0.7 -1.2 0.4 98 0.1 CALM 0 2 0 1 1026.7 - 0.0
26/04:50am 0.8 -1.5 0.5 98 0.1 ENE 2 4 1 2 1026.8 - 0.0
26/04:40am 0.7 -1.2 0.4 98 0.1 CALM 0 2 0 1 1026.7 - 0.0
26/04:30am 1.1 -0.8 0.7 97 0.2 CALM 0 0 0 0 1026.7 - 0.0
26/04:20am 1.2 -0.6 0.9 98 0.1 CALM 0 0 0 0 1026.7 - 0.0
26/04:10am 1.5 -0.3 1.2 98 0.1 CALM 0 0 0 0 1026.7 - 0.0
26/04:00am 1.8 -0.7 1.4 97 0.2 SW 4 6 2 3 1026.7 - 0.0
26/03:50am 2.1 0.0 1.7 97 0.2 SSW 2 4 1 2 1026.7 - 0.0
26/03:40am 2.6 1.0 2.3 98 0.1 CALM 0 0 0 0 1026.7 - 0.0
26/03:30am 3.1 1.6 2.8 98 0.1 CALM 0 0 0 0 1026.7 - 0.0
26/03:20am 3.3 1.8 3.0 98 0.1 CALM 0 0 0 0 1026.9 - 0.0
26/03:10am 3.3 1.8 3.0 98 0.1 CALM 0 0 0 0 1027.0 - 0.0
26/03:00am 3.2 1.3 2.9 98 0.1 W 2 4 1 2 1027.1 - 0.0
26/02:50am 3.4 0.8 3.0 97 0.2 SSW 6 7 3 4 1027.2 - 0.0
26/02:40am 4.3 2.6 4.0 98 0.1 S 2 4 1 2 1027.2 - 0.0
26/02:30am 4.9 3.7 4.6 98 0.1 CALM 0 0 0 0 1027.1 - 0.0
26/02:20am 4.8 3.6 4.5 98 0.1 CALM 0 0 0 0 1027.2 - 0.0
26/02:10am 4.7 3.5 4.4 98 0.1 CALM 0 0 0 0 1027.3 - 0.0
26/02:00am 4.7 3.1 4.4 98 0.1 W 2 2 1 1 1027.3 - 0.0
26/01:50am 4.9 2.9 4.6 98 0.1 SSW 4 6 2 3 1027.4 - 0.0
26/01:40am 5.6 3.8 5.3 98 0.1 SSW 4 6 2 3 1027.5 - 0.0
26/01:30am 5.6 3.2 5.4 99 0.1 SSW 7 7 4 4 1027.5 - 0.0
26/01:20am 6.2 4.5 6.0 99 0.1 SSW 4 7 2 4 1027.4 - 0.0
26/01:10am 6.4 5.1 6.2 99 0.1 SW 2 4 1 2 1027.4 - 0.0
26/01:00am 6.4 5.5 6.2 99 0.1 CALM 0 0 0 0 1027.4 - 0.0
26/12:50am 6.3 5.4 6.1 99 0.1 CALM 0 0 0 0 1027.5 - 0.0
26/12:40am 6.3 5.4 6.1 99 0.1 CALM 0 2 0 1 1027.5 - 0.0
26/12:30am 6.3 5.4 6.1 99 0.1 CALM 0 0 0 0 1027.6 - 0.0
26/12:20am 6.5 5.3 6.3 99 0.1 ESE 2 4 1 2 1027.7 - 0.0
26/12:10am 5.9 4.9 5.7 99 0.1 CALM 0 2 0 1 1027.7 - 0.0
26/12:00am 6.0 5.0 5.7 98 0.1 CALM 0 2 0 1 1027.8 - 0.0
 
Date/Time
EST
Temp
°C
App
Temp
°C
Dew
Point
°C
Rel
Hum
%
Delta-T
°C
Wind Press
QNH
hPa
Press
MSL
hPa
Rain since
9am
mm
Dir  Spd
km/h
Gust
km/h
Spd
kts
Gust
kts
25/11:50pm 6.5 5.7 6.3 99 0.1 CALM 0 0 0 0 1027.9 - 0.0
25/11:40pm 6.2 5.3 6.0 99 0.1 CALM 0 0 0 0 1027.9 - 0.0
25/11:30pm 5.6 4.5 5.3 98 0.1 CALM 0 0 0 0 1027.8 - 0.0
25/11:20pm 5.5 4.4 5.3 99 0.1 CALM 0 0 0 0 1027.9 - 0.0
25/11:10pm 5.5 4.4 5.3 99 0.1 CALM 0 2 0 1 1027.9 - 0.0
25/11:00pm 4.6 3.3 4.3 98 0.1 CALM 0 2 0 1 1027.9 - 0.0
25/10:50pm 4.5 3.2 4.2 98 0.1 CALM 0 2 0 1 1027.9 - 0.0
25/10:40pm 4.0 2.6 3.7 98 0.1 CALM 0 0 0 0 1028.0 - 0.0
25/10:30pm 3.6 1.8 3.3 98 0.1 N 2 4 1 2 1027.9 - 0.0
25/10:20pm 3.6 2.1 3.2 97 0.2 CALM 0 2 0 1 1028.0 - 0.0
25/10:10pm 4.1 2.7 3.7 97 0.2 CALM 0 0 0 0 1027.9 - 0.0
25/10:00pm 3.7 2.3 3.3 97 0.2 CALM 0 4 0 2 1028.0 - 0.0
25/09:50pm 3.4 1.5 3.1 98 0.1 N 2 4 1 2 1028.0 - 0.0
25/09:40pm 3.7 2.3 3.3 97 0.2 CALM 0 0 0 0 1028.1 - 0.0
25/09:30pm 3.4 1.9 3.0 97 0.2 CALM 0 0 0 0 1028.0 - 0.0
25/09:20pm 3.6 2.1 3.2 97 0.2 CALM 0 0 0 0 1027.9 - 0.0
25/09:10pm 3.9 2.5 3.5 97 0.2 CALM 0 0 0 0 1027.9 - 0.0
25/09:00pm 3.1 1.2 2.7 97 0.2 N 2 4 1 2 1027.8 - 0.0
25/08:50pm 2.4 0.3 2.0 97 0.2 NNE 2 6 1 3 1027.8 - 0.0
25/08:40pm 2.8 1.2 2.4 97 0.2 CALM 0 0 0 0 1027.8 - 0.0
25/08:30pm 3.2 1.6 2.7 96 0.2 CALM 0 2 0 1 1027.8 - 0.0
25/08:20pm 2.3 -0.2 1.8 96 0.2 ENE 4 4 2 2 1027.7 - 0.0
25/08:10pm 2.3 -0.2 1.6 95 0.3 NNE 4 4 2 2 1027.6 - 0.0
25/08:00pm 3.1 1.5 2.6 96 0.2 CALM 0 2 0 1 1027.6 - 0.0
25/07:50pm 2.9 0.5 2.3 96 0.2 NE 4 4 2 2 1027.5 - 0.0
25/07:40pm 3.0 0.6 2.1 94 0.4 NNE 4 6 2 3 1027.5 - 0.0
25/07:30pm 4.0 2.6 3.4 96 0.3 CALM 0 2 0 1 1027.5 - 0.0
25/07:20pm 4.5 2.8 4.0 97 0.2 E 2 4 1 2 1027.5 - 0.0
25/07:10pm 3.7 1.4 3.0 95 0.3 NNE 4 7 2 4 1027.4 - 0.0
25/07:00pm 4.0 2.1 3.0 93 0.4 N 2 7 1 4 1027.4 - 0.0
25/06:50pm 4.5 3.1 3.6 94 0.4 CALM 0 0 0 0 1027.4 - 0.0
25/06:40pm 4.7 3.4 3.9 95 0.4 CALM 0 0 0 0 1027.3 - 0.0
25/06:30pm 5.0 2.9 3.9 93 0.5 ENE 4 4 2 2 1027.3 - 0.0
25/06:20pm 5.3 2.9 4.5 95 0.4 NE 6 6 3 3 1027.2 - 0.0
25/06:10pm 5.4 3.4 4.5 94 0.4 NE 4 6 2 3 1027.2 - 0.0
25/06:00pm 5.5 3.2 4.6 94 0.4 NE 6 7 3 4 1027.1 - 0.0
25/05:50pm 5.9 3.6 4.7 92 0.5 NE 6 6 3 3 1027.0 - 0.0
25/05:40pm 6.6 4.3 4.9 89 0.8 NE 6 7 3 4 1026.9 - 0.0
25/05:30pm 7.4 5.0 5.3 86 1.0 NE 7 9 4 5 1026.7 - 0.0
25/05:20pm 8.1 5.9 6.4 89 0.8 NE 7 7 4 4 1026.7 - 0.0
25/05:10pm 9.3 7.4 6.9 85 1.2 NE 6 7 3 4 1026.8 - 0.0
25/05:00pm 10.1 8.1 7.3 83 1.4 NE 7 9 4 5 1026.7 - 0.0
25/04:50pm 11.2 9.3 7.4 77 1.9 NE 7 9 4 5 1026.7 - 0.0
25/04:40pm 12.6 11.2 7.4 70 2.6 N 4 6 2 3 1026.7 - 0.0
25/04:30pm 13.9 12.5 7.1 63 3.4 NNW 4 6 2 3 1026.7 - 0.0
25/04:20pm 14.8 12.9 6.6 58 4.1 NW 6 7 3 4 1026.7 - 0.0
25/04:10pm 15.9 14.3 6.3 53 4.9 WNW 4 6 2 3 1026.7 - 0.0
25/04:00pm 16.1 13.9 5.5 49 5.3 WNW 6 7 3 4 1026.7 - 0.0
25/03:50pm 16.6 14.9 5.7 48 5.5 NW 4 7 2 4 1026.7 - 0.0
25/03:40pm 16.5 14.5 6.3 51 5.2 NNW 6 9 3 5 1026.7 - 0.0
25/03:30pm 16.8 15.6 6.6 51 5.2 NNW 2 6 1 3 1026.6 - 0.0
25/03:20pm 16.1 14.1 6.1 51 5.0 NNW 6 7 3 4 1026.7 - 0.0
25/03:10pm 16.0 13.9 6.0 51 5.0 NNW 6 7 3 4 1026.6 - 0.0
25/03:00pm 15.9 14.3 6.2 52 4.9 W 4 7 2 4 1026.6 - 0.0
25/02:50pm 15.8 14.1 6.1 52 4.9 W 4 6 2 3 1026.7 - 0.0
25/02:40pm 16.0 14.7 6.0 51 5.0 S 2 4 1 2 1026.7 - 0.0
25/02:30pm 15.5 14.9 7.2 57 4.3 CALM 0 4 0 2 1026.7 - 0.0
25/02:20pm 15.2 14.1 7.1 58 4.1 WNW 2 7 1 4 1026.8 - 0.0
25/02:10pm 15.4 14.0 7.2 58 4.2 W 4 7 2 4 1026.9 - 0.0
25/02:00pm 15.7 14.7 7.5 58 4.2 WSW 2 6 1 3 1026.9 - 0.0
25/01:50pm 15.3 13.9 7.3 59 4.1 W 4 9 2 5 1027.0 - 0.0
25/01:40pm 15.5 14.7 8.0 61 3.9 WNW 2 6 1 3 1027.0 - 0.0
25/01:30pm 15.7 14.8 7.6 58 4.2 WSW 2 6 1 3 1027.1 - 0.0
25/01:20pm 15.2 14.4 8.1 62 3.7 E 2 4 1 2 1027.2 - 0.0
25/01:10pm 14.7 13.5 7.9 63 3.5 NNE 4 6 2 3 1027.4 - 0.0
25/01:00pm 14.8 13.2 7.9 63 3.6 N 6 7 3 4 1027.5 - 0.0
25/12:50pm 14.8 14.0 8.0 64 3.5 NE 2 4 1 2 1027.5 - 0.0
25/12:40pm 14.5 13.2 7.7 63 3.5 NNW 4 7 2 4 1027.7 - 0.0
25/12:30pm 14.5 12.9 7.8 64 3.5 NNW 6 9 3 5 1027.8 - 0.0
25/12:20pm 14.4 12.8 8.2 66 3.2 NE 6 9 3 5 1027.9 - 0.0
25/12:10pm 14.5 13.0 8.3 66 3.2 NE 6 9 3 5 1028.0 - 0.0
25/12:00pm 14.6 13.5 8.4 66 3.2 ENE 4 7 2 4 1028.2 - 0.0
25/11:50am 14.3 13.3 8.8 69 2.9 NE 4 7 2 4 1028.4 - 0.0
25/11:40am 13.4 11.8 8.1 70 2.7 ENE 6 9 3 5 1028.6 - 0.0
25/11:30am 12.8 11.2 7.8 71 2.6 ENE 6 9 3 5 1028.8 - 0.0
25/11:20am 12.5 11.2 7.8 73 2.4 ESE 4 7 2 4 1029.0 - 0.0
25/11:10am 12.0 11.2 8.3 78 1.9 SE 2 4 1 2 1029.2 - 0.0
25/11:00am 11.4 10.3 8.3 81 1.6 SW 4 7 2 4 1029.4 - 0.0
25/10:50am 10.8 9.3 8.3 84 1.3 SSW 6 6 3 3 1029.6 - 0.0
25/10:40am 10.0 8.8 8.1 88 1.0 SW 4 6 2 3 1029.7 - 0.0
25/10:20am 8.5 7.4 7.1 91 0.7 SW 2 4 1 2 1029.9 - 0.0
25/10:10am 7.8 6.3 6.7 93 0.5 SW 4 4 2 2 1029.9 - 0.0
25/10:00am 7.5 6.3 6.6 94 0.4 SW 2 4 1 2 1029.9 - 0.0
25/09:50am 7.0 6.2 6.4 96 0.3 CALM 0 2 0 1 1030.0 - 0.0
25/09:40am 6.7 5.8 6.2 97 0.2 CALM 0 2 0 1 1030.0 - 0.0
25/09:30am 6.5 5.6 6.1 97 0.2 CALM 0 0 0 0 1029.9 - 0.0
25/09:20am 6.2 5.2 5.8 97 0.2 CALM 0 0 0 0 1029.9 - 0.0
25/09:10am 5.5 4.4 5.1 97 0.2 CALM 0 0 0 0 1029.9 - 0.0
25/09:00am 5.1 3.9 4.7 97 0.2 CALM 0 0 0 0 1029.8 - 0.0
25/08:50am 4.7 3.5 4.4 98 0.1 CALM 0 0 0 0 1029.9 - 0.0
25/08:40am 4.4 3.1 4.1 98 0.1 CALM 0 0 0 0 1029.9 - 0.0
25/08:30am 3.9 2.5 3.6 98 0.1 CALM 0 0 0 0 1029.9 - 0.0
25/08:20am 3.3 1.8 3.0 98 0.1 CALM 0 2 0 1 1029.9 - 0.0
25/08:10am 2.6 1.0 2.3 98 0.1 CALM 0 2 0 1 1029.9 - 0.0
25/08:00am 2.3 0.6 1.9 97 0.2 CALM 0 0 0 0 1029.8 - 0.0
25/07:50am 2.1 0.4 1.7 97 0.2 CALM 0 2 0 1 1029.7 - 0.0
25/07:40am 1.8 -0.3 1.5 98 0.1 SSW 2 4 1 2 1029.6 - 0.0
25/07:30am 1.5 -0.3 1.2 98 0.1 CALM 0 2 0 1 1029.5 - 0.0
25/07:20am 1.2 -0.6 0.9 98 0.1 CALM 0 2 0 1 1029.4 - 0.0
25/07:10am 1.1 -1.2 0.7 97 0.2 NE 2 2 1 1 1029.4 - 0.0
25/07:00am 1.6 -0.9 1.3 98 0.1 ENE 4 6 2 3 1029.4 - 0.0
25/06:50am 1.1 -1.5 0.8 98 0.1 ENE 4 6 2 3 1029.3 - 0.0
25/06:40am 0.5 -1.8 0.1 97 0.2 NE 2 4 1 2 1029.3 - 0.0
25/06:30am 1.0 -0.9 0.6 97 0.2 CALM 0 0 0 0 1029.2 - 0.0
25/06:20am 0.9 -1.4 0.6 98 0.1 ENE 2 2 1 1 1029.1 - 0.0
25/06:10am 0.6 -1.4 0.2 97 0.2 CALM 0 0 0 0 1029.1 - 0.0
25/06:00am 1.1 -0.8 0.8 98 0.1 CALM 0 0 0 0 1029.1 - 0.0
25/05:50am 1.0 -0.9 0.6 97 0.2 CALM 0 2 0 1 1029.1 - 0.0
25/05:40am 0.7 -1.6 0.4 98 0.1 SW 2 4 1 2 1029.0 - 0.0
25/05:30am 0.8 -1.1 0.4 97 0.2 CALM 0 2 0 1 1028.8 - 0.0
25/05:20am 0.0 -2.8 -0.4 97 0.2 NE 4 4 2 2 1028.8 - 0.0
25/05:10am 0.3 -1.7 -0.1 97 0.2 CALM 0 0 0 0 1028.7 - 0.0
25/05:00am 0.6 -1.4 0.2 97 0.2 CALM 0 2 0 1 1028.7 - 0.0
25/04:50am 0.7 -2.0 0.4 98 0.1 ENE 4 6 2 3 1028.7 - 0.0
25/04:40am 0.4 -1.9 0.1 98 0.1 NE 2 4 1 2 1028.7 - 0.0
25/04:30am 1.0 -1.6 0.7 98 0.1 ENE 4 6 2 3 1028.7 - 0.0
25/04:20am -0.2 -3.0 -0.6 97 0.1 ENE 4 4 2 2 1028.6 - 0.0
25/04:10am 0.7 -1.6 0.4 98 0.1 NE 2 4 1 2 1028.6 - 0.0
25/04:00am 0.1 -2.7 -0.2 98 0.1 NE 4 4 2 2 1028.5 - 0.0
25/03:50am 0.4 -1.6 0.0 97 0.2 CALM 0 4 0 2 1028.6 - 0.0
25/03:40am 1.1 -0.8 0.8 98 0.1 CALM 0 2 0 1 1028.5 - 0.0
25/03:30am 0.1 -2.7 -0.3 97 0.2 NE 4 4 2 2 1028.7 - 0.0
25/03:20am 0.5 -1.8 0.1 97 0.2 ENE 2 4 1 2 1028.7 - 0.0
25/03:10am 0.3 -1.7 -0.1 97 0.2 CALM 0 0 0 0 1028.8 - 0.0
25/03:00am 1.0 -1.3 0.6 97 0.2 E 2 4 1 2 1028.8 - 0.0
25/02:50am 0.3 -2.5 -0.1 97 0.2 NNE 4 4 2 2 1028.8 - 0.0
25/02:40am 0.9 -1.4 0.4 96 0.2 NE 2 4 1 2 1028.8 - 0.0
25/02:30am 1.8 0.0 1.4 97 0.2 CALM 0 0 0 0 1028.8 - 0.0
25/02:20am 1.2 -0.7 0.8 97 0.2 CALM 0 2 0 1 1028.9 - 0.0
25/02:10am 1.2 -0.7 0.8 97 0.2 CALM 0 0 0 0 1028.9 - 0.0
25/02:00am 1.5 -0.3 1.1 97 0.2 CALM 0 0 0 0 1028.8 - 0.0
25/01:50am 1.4 -0.4 1.0 97 0.2 CALM 0 0 0 0 1029.0 - 0.0
25/01:40am 1.0 -1.3 0.6 97 0.2 NE 2 4 1 2 1029.1 - 0.0
25/01:30am 1.4 -0.8 1.0 97 0.2 E 2 4 1 2 1029.0 - 0.0
25/01:20am 1.2 -1.4 0.8 97 0.2 NE 4 4 2 2 1029.1 - 0.0
25/01:10am 2.5 0.8 2.1 97 0.2 CALM 0 0 0 0 1029.0 - 0.0
25/01:00am 2.5 0.5 2.2 98 0.1 NE 2 4 1 2 1029.0 - 0.0
25/12:50am 1.6 -0.6 1.2 97 0.2 NNE 2 4 1 2 1029.1 - 0.0
25/12:40am 2.1 0.0 1.7 97 0.2 N 2 4 1 2 1029.1 - 0.0
25/12:30am 2.5 0.8 2.1 97 0.2 CALM 0 2 0 1 1029.2 - 0.0
25/12:20am 2.1 -0.4 1.7 97 0.2 NNE 4 4 2 2 1029.3 - 0.0
25/12:10am 2.8 1.2 2.4 97 0.2 CALM 0 0 0 0 1029.3 - 0.0
25/12:00am 2.7 1.1 2.2 96 0.2 CALM 0 0 0 0 1029.4 - 0.0
 
Date/Time
EST
Temp
°C
App
Temp
°C
Dew
Point
°C
Rel
Hum
%
Delta-T
°C
Wind Press
QNH
hPa
Press
MSL
hPa
Rain since
9am
mm
Dir  Spd
km/h
Gust
km/h
Spd
kts
Gust
kts
24/11:50pm 3.4 0.8 3.0 97 0.2 ENE 6 6 3 3 1029.4 - 0.0
24/11:40pm 2.7 -0.1 2.3 97 0.2 NE 6 6 3 3 1029.4 - 0.0
24/11:30pm 3.6 1.4 3.2 97 0.2 NE 4 6 2 3 1029.4 - 0.0
24/11:20pm 3.0 0.3 2.6 97 0.2 NNE 6 6 3 3 1029.4 - 0.0
24/11:10pm 3.0 0.3 2.5 96 0.2 NE 6 6 3 3 1029.4 - 0.0
24/11:00pm 2.9 0.2 2.5 97 0.2 NE 6 7 3 4 1029.5 - 0.0
24/10:50pm 2.7 0.3 2.3 97 0.2 N 4 4 2 2 1029.4 - 0.0
24/10:40pm 3.2 1.3 2.7 96 0.2 N 2 4 1 2 1029.4 - 0.0
24/10:30pm 2.9 0.9 2.4 96 0.2 N 2 4 1 2 1029.5 - 0.0
24/10:20pm 3.0 0.7 2.5 96 0.2 ENE 4 6 2 3 1029.5 - 0.0
24/10:10pm 3.5 0.9 3.0 97 0.2 E 6 7 3 4 1029.5 - 0.0
24/10:00pm 4.2 2.1 3.8 97 0.2 E 4 4 2 2 1029.7 - 0.0
24/09:50pm 4.5 2.4 4.1 97 0.2 ENE 4 6 2 3 1029.7 - 0.0
24/09:40pm 3.9 1.7 3.4 97 0.2 NE 4 4 2 2 1029.6 - 0.0
24/09:30pm 4.1 2.3 3.5 96 0.3 N 2 2 1 1 1029.6 - 0.0
24/09:20pm 4.4 3.0 3.8 96 0.3 CALM 0 0 0 0 1029.4 - 0.0
24/09:10pm 4.3 2.5 3.7 96 0.3 N 2 4 1 2 1029.4 - 0.0
24/09:00pm 4.3 2.5 3.6 95 0.3 NNW 2 4 1 2 1029.3 - 0.0
24/08:50pm 4.5 3.1 3.8 95 0.3 CALM 0 2 0 1 1029.2 - 0.0
24/08:40pm 4.6 2.5 3.9 95 0.3 NE 4 6 2 3 1029.3 - 0.0
24/08:30pm 4.9 3.2 4.2 95 0.3 NNE 2 4 1 2 1029.2 - 0.0
24/08:20pm 5.1 3.8 4.1 93 0.4 CALM 0 0 0 0 1029.2 - 0.0
24/08:10pm 5.5 4.2 4.1 91 0.6 CALM 0 0 0 0 1029.1 - 0.0
24/08:00pm 6.5 4.5 4.4 86 0.9 NE 4 4 2 2 1029.0 - 0.0
24/07:50pm 7.6 5.5 5.6 87 0.9 E 6 9 3 5 1028.8 - 0.0
24/07:40pm 7.7 5.4 5.6 86 1.0 E 7 9 4 5 1028.8 - 0.0
24/07:30pm 7.9 5.2 5.6 85 1.1 E 9 11 5 6 1028.6 - 0.0
24/07:20pm 7.9 5.2 5.6 85 1.1 E 9 9 5 5 1028.6 - 0.0
24/07:10pm 8.0 5.3 5.5 84 1.2 E 9 11 5 6 1028.7 - 0.0
24/07:00pm 8.0 5.3 5.5 84 1.2 E 9 11 5 6 1028.5 - 0.0
24/06:50pm 7.7 4.5 5.1 83 1.2 ENE 11 13 6 7 1028.5 - 0.0
24/06:40pm 7.0 4.7 4.8 86 1.0 ENE 6 9 3 5 1028.3 - 0.0
24/06:30pm 7.5 5.6 4.9 83 1.2 ENE 4 6 2 3 1028.2 - 0.0
24/06:20pm 7.5 5.2 5.0 84 1.2 E 6 6 3 3 1028.0 - 0.0
24/06:10pm 7.1 4.5 4.4 83 1.2 ENE 7 11 4 6 1027.7 - 0.0
24/06:00pm 7.2 5.2 4.4 82 1.3 ENE 4 6 2 3 1027.7 - 0.0
24/05:50pm 7.6 5.6 4.5 81 1.4 E 4 6 2 3 1027.6 - 0.0
24/05:40pm 8.7 6.1 4.4 74 2.0 ESE 7 9 4 5 1027.5 - 0.0
24/05:30pm 8.4 5.9 4.0 74 2.0 SE 6 7 3 4 1027.4 - 0.0
24/05:20pm 8.4 6.5 4.7 77 1.7 S 4 7 2 4 1027.2 - 0.0
24/05:10pm 9.0 7.9 5.1 76 1.8 CALM 0 0 0 0 1027.1 - 0.0
24/05:00pm 9.3 7.9 5.7 78 1.7 NNE 2 4 1 2 1026.9 - 0.0
24/04:50pm 10.1 8.4 6.1 76 1.9 N 4 4 2 2 1026.8 - 0.0
24/04:40pm 10.4 8.7 6.0 74 2.1 N 4 4 2 2 1026.7 - 0.0
24/04:30pm 10.7 9.0 6.0 73 2.3 N 4 6 2 3 1026.7 - 0.0
24/04:20pm 11.4 9.7 6.0 69 2.6 N 4 6 2 3 1026.6 - 0.0
24/04:10pm 11.9 9.8 5.7 66 3.0 N 6 9 3 5 1026.6 - 0.0
24/04:00pm 12.5 10.4 5.9 64 3.2 NNE 6 9 3 5 1026.5 - 0.0
24/03:50pm 12.8 9.6 5.3 60 3.6 NE 11 13 6 7 1026.5 - 0.0
24/03:40pm 13.5 10.5 5.9 60 3.7 NE 11 13 6 7 1026.5 - 0.0
24/03:30pm 14.3 11.6 5.5 55 4.3 NE 9 9 5 5 1026.6 - 0.0
24/03:20pm 14.8 12.5 5.5 53 4.6 NNE 7 9 4 5 1026.6 - 0.0
24/03:10pm 14.6 12.2 5.1 53 4.6 NNE 7 9 4 5 1026.5 - 0.0
24/03:00pm 14.9 11.9 4.1 48 5.2 NNE 9 9 5 5 1026.6 - 0.0
24/02:50pm 15.2 12.7 4.6 49 5.2 N 7 9 4 5 1026.6 - 0.0
24/02:40pm 15.1 12.1 4.0 47 5.3 NNE 9 9 5 5 1026.5 - 0.0
24/02:30pm 15.3 12.6 3.8 46 5.5 NNE 7 11 4 6 1026.6 - 0.0
24/02:20pm 15.7 12.9 3.1 43 6.0 N 7 9 4 5 1026.7 - 0.0
24/02:10pm 15.6 13.1 1.4 38 6.5 ESE 4 7 2 4 1026.7 - 0.0
24/02:00pm 15.1 11.9 -0.6 34 6.8 S 6 7 3 4 1026.7 - 0.0
24/01:50pm 15.1 11.9 -0.2 35 6.7 S 6 7 3 4 1026.7 - 0.0
24/01:40pm 15.7 12.6 0.3 35 6.9 S 6 7 3 4 1026.7 - 0.0
24/01:30pm 16.1 13.4 0.1 33 7.1 NW 4 11 2 6 1026.8 - 0.0
24/01:20pm 15.7 12.7 0.5 35 6.8 SW 6 7 3 4 1027.0 - 0.0
24/01:10pm 15.5 12.4 0.4 35 6.7 SSE 6 11 3 6 1027.1 - 0.0
24/01:00pm 15.4 12.7 0.3 35 6.7 ENE 4 7 2 4 1027.2 - 0.0
24/12:50pm 14.8 11.8 0.6 38 6.3 SE 6 9 3 5 1027.3 - 0.0
24/12:40pm 14.9 11.9 1.0 39 6.2 ESE 6 9 3 5 1027.4 - 0.0
24/12:30pm 14.7 11.8 1.4 40 6.0 S 6 11 3 6 1027.5 - 0.0
24/12:20pm 14.6 11.7 1.6 41 5.9 S 6 9 3 5 1027.5 - 0.0
24/12:10pm 14.3 11.4 2.4 44 5.5 S 7 11 4 6 1027.5 - 0.0
24/12:00pm 14.1 11.4 2.8 46 5.2 SSE 6 11 3 6 1027.6 - 0.0
24/11:50am 13.4 10.6 2.9 49 4.9 SSE 7 9 4 5 1027.8 - 0.0
24/11:40am 13.5 10.6 2.6 47 5.0 SSE 7 13 4 7 1028.0 - 0.0
24/11:30am 13.2 10.7 3.6 52 4.5 SE 6 11 3 6 1028.2 - 0.0
24/11:20am 12.7 9.9 3.3 52 4.4 ESE 7 9 4 5 1028.4 - 0.0
24/11:10am 12.1 10.1 4.2 58 3.7 SE 4 7 2 4 1028.5 - 0.0
24/11:00am 11.6 9.2 4.1 60 3.5 SE 6 7 3 4 1028.6 - 0.0
24/10:50am 11.1 8.7 4.1 62 3.3 SSE 6 9 3 5 1028.7 - 0.0
24/10:40am 10.6 8.2 4.2 64 3.0 SSE 6 9 3 5 1028.7 - 0.0
24/10:30am 10.1 7.5 4.2 67 2.7 SSE 7 9 4 5 1028.7 - 0.0
24/10:20am 9.5 7.0 4.7 72 2.2 SSE 7 11 4 6 1028.6 - 0.0
24/10:10am 8.9 6.6 5.5 79 1.6 S 7 9 4 5 1028.6 - 0.0
24/10:00am 8.4 6.1 5.9 84 1.2 S 7 9 4 5 1028.6 - 0.0
24/09:50am 8.0 6.4 6.2 88 0.9 ESE 4 7 2 4 1028.7 - 0.0
24/09:40am 7.5 5.5 6.1 91 0.7 ESE 6 7 3 4 1028.7 - 0.0
24/09:30am 7.1 5.4 6.1 93 0.5 ESE 4 9 2 5 1028.6 - 0.0
24/09:20am 6.4 5.4 5.8 96 0.3 CALM 0 2 0 1 1028.7 - 0.0
24/09:10am 5.5 4.3 4.8 95 0.3 CALM 0 0 0 0 1028.9 - 0.0
24/09:00am 4.4 3.0 3.8 96 0.3 CALM 0 0 0 0 1029.0 - 0.2
24/08:50am 3.6 2.1 3.1 97 0.2 CALM 0 2 0 1 1029.1 - 0.2
24/08:40am 3.1 1.5 2.7 97 0.2 CALM 0 0 0 0 1029.1 - 0.2
24/08:30am 2.5 0.8 2.0 96 0.2 CALM 0 0 0 0 1029.1 - 0.2
24/08:20am 1.9 -0.2 1.4 96 0.2 S 2 4 1 2 1029.0 - 0.2
24/08:10am 2.7 1.1 2.2 96 0.2 CALM 0 4 0 2 1029.0 - 0.2
24/08:00am 2.1 0.0 1.7 97 0.2 ENE 2 4 1 2 1028.8 - 0.2
24/07:50am 1.1 -1.9 0.6 96 0.2 NE 6 6 3 3 1028.7 - 0.2
24/07:40am 0.7 -1.6 0.4 98 0.1 NE 2 4 1 2 1028.5 - 0.2
24/07:30am 0.7 -1.2 0.4 98 0.1 CALM 0 0 0 0 1028.5 - 0.2
24/07:20am 0.7 -1.2 0.4 98 0.1 CALM 0 0 0 0 1028.5 - 0.2
24/07:10am 0.5 -1.8 0.2 98 0.1 W 2 2 1 1 1028.4 - 0.2
24/06:50am 1.1 -1.1 0.8 98 0.1 S 2 6 1 3 1028.2 - 0.0
24/06:40am 1.2 -0.6 0.9 98 0.1 CALM 0 0 0 0 1028.1 - 0.0
24/06:30am 1.2 -0.6 0.9 98 0.1 CALM 0 0 0 0 1028.1 - 0.0
24/06:20am 1.4 -1.2 1.1 98 0.1 SSW 4 6 2 3 1028.0 - 0.0
24/06:10am 1.7 -0.8 1.5 99 0.1 SSW 4 4 2 2 1027.9 - 0.0
24/06:00am 1.9 -1.0 1.6 98 0.1 SSW 6 7 3 4 1027.8 - 0.0
24/05:50am 2.4 0.4 2.1 98 0.1 SSW 2 6 1 3 1027.7 - 0.0
24/05:40am 2.7 0.3 2.4 98 0.1 SSW 4 4 2 2 1027.6 - 0.0
24/05:30am 2.9 1.0 2.6 98 0.1 W 2 4 1 2 1027.5 - 0.0
24/05:20am 3.1 1.2 2.8 98 0.1 SW 2 4 1 2 1027.5 - 0.0
24/05:10am 3.1 0.8 2.8 98 0.1 SW 4 4 2 2 1027.5 - 0.0
24/05:00am 3.1 1.6 2.8 98 0.1 CALM 0 0 0 0 1027.3 - 0.0
24/04:50am 3.0 1.5 2.8 99 0.1 CALM 0 0 0 0 1027.2 - 0.0
24/04:40am 2.9 1.3 2.7 99 0.1 CALM 0 0 0 0 1027.3 - 0.0
24/04:30am 2.8 1.2 2.5 98 0.1 CALM 0 4 0 2 1027.4 - 0.0
24/04:20am 2.7 0.7 2.5 99 0.1 NW 2 4 1 2 1027.4 - 0.0
24/04:10am 2.8 0.5 2.5 98 0.1 SW 4 6 2 3 1027.3 - 0.0
24/04:00am 3.0 1.1 2.7 98 0.1 SW 2 6 1 3 1027.4 - 0.0
24/03:50am 3.2 1.7 2.9 98 0.1 CALM 0 0 0 0 1027.3 - 0.0
24/03:40am 3.1 1.6 2.8 98 0.1 CALM 0 0 0 0 1027.3 - 0.0
24/03:30am 3.0 1.4 2.7 98 0.1 CALM 0 0 0 0 1027.5 - 0.0
24/03:20am 2.9 1.3 2.7 99 0.1 CALM 0 0 0 0 1027.5 - 0.0
24/03:10am 2.8 1.2 2.6 99 0.1 CALM 0 0 0 0 1027.5 - 0.0
24/03:00am 2.8 1.2 2.6 99 0.1 CALM 0 0 0 0 1027.6 - 0.0
24/02:50am 2.8 1.2 2.5 98 0.1 CALM 0 0 0 0 1027.7 - 0.0
24/02:40am 2.4 0.4 2.1 98 0.1 ENE 2 4 1 2 1027.7 - 0.0
24/02:30am 2.0 0.3 1.7 98 0.1 CALM 0 2 0 1 1027.8 - 0.0
24/02:20am 1.7 -0.1 1.4 98 0.1 CALM 0 0 0 0 1027.9 - 0.0
24/02:10am 1.6 -0.2 1.3 98 0.1 CALM 0 0 0 0 1027.9 - 0.0
24/02:00am 1.3 -0.5 0.9 97 0.2 CALM 0 0 0 0 1028.0 - 0.0
24/01:50am 1.0 -0.9 0.7 98 0.1 CALM 0 0 0 0 1027.9 - 0.0
24/01:40am 1.2 -0.7 0.8 97 0.2 CALM 0 0 0 0 1028.0 - 0.0
24/01:30am 0.5 -1.5 0.2 98 0.1 CALM 0 0 0 0 1028.1 - 0.0
24/01:20am 0.3 -1.7 -0.1 97 0.2 CALM 0 0 0 0 1028.1 - 0.0
24/01:10am 0.1 -1.9 -0.2 98 0.1 CALM 0 2 0 1 1028.1 - 0.0
24/01:00am -0.3 -2.4 -0.7 97 0.1 CALM 0 2 0 1 1028.1 - 0.0
24/12:50am -0.8 -3.0 -1.3 96 0.1 CALM 0 0 0 0 1028.1 - 0.0
24/12:40am -0.5 -3.0 -0.9 97 0.1 SSW 2 2 1 1 1028.1 - 0.0
24/12:30am -0.4 -2.5 -0.8 97 0.1 CALM 0 0 0 0 1028.1 - 0.0
24/12:20am -0.5 -2.6 -1.0 96 0.2 CALM 0 2 0 1 1028.2 - 0.0
24/12:10am -0.8 -3.0 -1.3 96 0.1 CALM 0 2 0 1 1028.2 - 0.0
24/12:00am -0.6 -2.7 -1.1 96 0.2 CALM 0 0 0 0 1028.3 - 0.0
 
Date/Time
EST
Temp
°C
App
Temp
°C
Dew
Point
°C
Rel
Hum
%
Delta-T
°C
Wind Press
QNH
hPa
Press
MSL
hPa
Rain since
9am
mm
Dir  Spd
km/h
Gust
km/h
Spd
kts
Gust
kts
23/11:50pm -0.9 -3.1 -1.4 96 0.1 CALM 0 2 0 1 1028.3 - 0.0
23/11:40pm -0.7 -3.2 -1.2 96 0.1 NNE 2 4 1 2 1028.4 - 0.0
23/11:30pm -0.7 -3.2 -1.2 96 0.1 NW 2 4 1 2 1028.5 - 0.0
23/11:20pm 0.0 -2.4 -0.5 96 0.2 ESE 2 2 1 1 1028.5 - 0.0
23/11:10pm -0.2 -3.4 -0.7 96 0.2 ENE 6 6 3 3 1028.5 - 0.0
23/11:00pm -1.0 -4.4 -1.7 95 0.2 NE 6 7 3 4 1028.5 - 0.0
23/10:50pm 0.1 -2.3 -0.4 96 0.2 ENE 2 2 1 1 1028.5 - 0.0
23/10:40pm -0.1 -2.5 -0.6 96 0.2 ENE 2 2 1 1 1028.5 - 0.0
23/10:30pm 0.4 -2.4 -0.1 96 0.2 NE 4 4 2 2 1028.4 - 0.0
23/10:20pm 0.2 -2.6 -0.3 96 0.2 NE 4 4 2 2 1028.4 - 0.0
23/10:10pm 0.3 -2.1 -0.2 96 0.2 NNE 2 4 1 2 1028.5 - 0.0
23/10:00pm 0.9 -1.0 0.4 96 0.2 CALM 0 2 0 1 1028.5 - 0.0
23/09:50pm 0.7 -1.3 0.2 96 0.2 CALM 0 2 0 1 1028.3 - 0.0
23/09:40pm 0.1 -2.7 -0.4 96 0.2 NE 4 7 2 4 1028.2 - 0.0

Latest Capital City Observations: Canberra | Sydney | Melbourne | Brisbane | Adelaide | Perth | Hobart | Darwin

Other formats

Comma delimited format used in spreadsheet applications
http://www.bom.gov.au/fwo/IDN60903/IDN60903.99764.axf

JavaScript Object Notation format (JSON) in row-major order
http://www.bom.gov.au/fwo/IDN60903/IDN60903.99764.json

Data quality

Most of these data are generated automatically and are frequently updated. Quality checks on data are not normally performed. It is possible for incorrect values to appear. Refer to information at About Latest Weather Observations and please check the disclaimer before using these data.